createdAt,value
2023-02-27T00:00:55.352Z,77.92
2023-02-27T00:03:23.318Z,77.99
2023-02-27T00:05:50.773Z,77.78
2023-02-27T00:08:18.250Z,77.51
2023-02-27T00:10:45.707Z,77.44
2023-02-27T00:13:13.151Z,78.05
2023-02-27T00:15:41.134Z,75.60
2023-02-27T00:18:08.680Z,76.37
2023-02-27T00:20:38.352Z,77.94
2023-02-27T00:23:07.039Z,76.96
2023-02-27T00:25:35.550Z,76.78
2023-02-27T00:28:04.511Z,75.71
2023-02-27T00:30:32.726Z,77.03
2023-02-27T00:33:00.283Z,75.05
2023-02-27T00:35:27.762Z,76.46
2023-02-27T00:37:55.634Z,77.47
2023-02-27T00:40:25.446Z,75.91
2023-02-27T00:42:53.642Z,74.09
2023-02-27T00:45:21.140Z,75.75
2023-02-27T00:47:48.598Z,75.58
2023-02-27T00:50:16.662Z,75.10
2023-02-27T00:52:44.500Z,76.29
2023-02-27T00:55:12.127Z,75.92
2023-02-27T00:57:40.596Z,75.75
2023-02-27T01:00:09.210Z,74.89
2023-02-27T01:02:36.905Z,75.14
2023-02-27T01:05:05.059Z,73.90
2023-02-27T01:07:33.063Z,75.65
2023-02-27T01:10:02.151Z,75.52
2023-02-27T01:12:29.671Z,74.88
2023-02-27T01:14:57.127Z,76.13
2023-02-27T01:17:24.958Z,78.14
2023-02-27T01:19:52.515Z,76.27
2023-02-27T01:22:20.012Z,77.42
2023-02-27T01:24:47.448Z,77.55
2023-02-27T01:27:14.893Z,77.25
2023-02-27T01:29:42.663Z,76.18
2023-02-27T01:32:10.276Z,77.24
2023-02-27T01:34:38.474Z,77.03
2023-02-27T01:37:05.941Z,77.07
2023-02-27T01:39:33.524Z,77.41
2023-02-27T01:42:01.344Z,76.92
2023-02-27T01:44:32.158Z,77.34
2023-02-27T01:46:59.675Z,76.11
2023-02-27T01:49:29.660Z,76.70
2023-02-27T01:52:03.316Z,76.67
2023-02-27T01:54:35.718Z,77.39
2023-02-27T01:57:06.905Z,76.93
2023-02-27T01:59:35.934Z,77.12
2023-02-27T02:02:08.273Z,77.04
2023-02-27T02:04:39.369Z,77.48
2023-02-27T02:07:10.536Z,77.40
2023-02-27T02:09:44.062Z,77.61
2023-02-27T02:12:15.270Z,77.57
2023-02-27T02:14:44.339Z,77.44
2023-02-27T02:17:26.411Z,76.66
2023-02-27T02:20:12.286Z,77.21
2023-02-27T02:23:01.985Z,76.73
2023-02-27T02:26:02.425Z,76.49
2023-02-27T02:28:35.932Z,75.11
2023-02-27T02:31:21.667Z,75.37
2023-02-27T02:33:52.210Z,77.30
2023-02-27T02:36:44.398Z,77.35
2023-02-27T02:39:12.562Z,77.06
2023-02-27T02:41:52.036Z,76.76
2023-02-27T02:44:34.345Z,77.16
2023-02-27T02:47:10.935Z,76.93
2023-02-27T02:49:57.492Z,75.72
2023-02-27T02:53:06.509Z,77.49
2023-02-27T02:56:25.416Z,76.02
2023-02-27T02:58:59.855Z,76.58
2023-02-27T03:01:36.332Z,77.85
2023-02-27T03:04:13.637Z,77.40
2023-02-27T03:06:47.091Z,78.05
2023-02-27T03:09:32.714Z,77.81
2023-02-27T03:12:04.100Z,79.26
2023-02-27T03:15:06.655Z,78.66
2023-02-27T03:17:44.011Z,77.42
2023-02-27T03:20:19.277Z,78.24
2023-02-27T03:22:51.088Z,77.44
2023-02-27T03:25:20.343Z,77.31
2023-02-27T03:28:04.204Z,77.52
2023-02-27T03:30:47.169Z,77.35
2023-02-27T03:33:29.337Z,77.44
2023-02-27T03:36:07.958Z,76.40
2023-02-27T03:39:11.625Z,77.52
2023-02-27T03:42:34.123Z,77.65
2023-02-27T03:45:50.178Z,77.50
2023-02-27T03:48:17.826Z,77.61
2023-02-27T03:50:45.443Z,77.61
2023-02-27T03:53:33.890Z,77.07
2023-02-27T03:56:08.959Z,77.22
2023-02-27T03:58:37.090Z,78.34
2023-02-27T04:01:04.908Z,77.43
2023-02-27T04:03:39.581Z,78.46
2023-02-27T04:06:26.744Z,78.71
2023-02-27T04:09:14.949Z,78.80
2023-02-27T04:11:51.152Z,77.32
2023-02-27T04:14:36.688Z,78.21
2023-02-27T04:17:24.635Z,77.22
2023-02-27T04:20:00.991Z,76.14
2023-02-27T04:22:39.270Z,76.26
2023-02-27T04:25:21.968Z,76.73
2023-02-27T04:27:58.388Z,76.20
2023-02-27T04:30:47.458Z,76.65
2023-02-27T04:33:23.610Z,76.50
2023-02-27T04:36:15.598Z,76.93
2023-02-27T04:39:15.585Z,75.92
2023-02-27T04:42:00.571Z,75.23
2023-02-27T04:44:33.054Z,75.03
2023-02-27T04:47:03.538Z,76.38
2023-02-27T04:49:48.864Z,75.11
2023-02-27T04:52:31.395Z,76.59
2023-02-27T04:54:58.799Z,75.79
2023-02-27T04:57:35.645Z,76.61
2023-02-27T05:00:09.531Z,75.33
2023-02-27T05:02:42.421Z,75.52
2023-02-27T05:05:16.517Z,75.83
2023-02-27T05:07:51.557Z,76.28
2023-02-27T05:10:33.299Z,74.42
2023-02-27T05:13:09.470Z,75.07
2023-02-27T05:16:01.348Z,74.67
2023-02-27T05:18:29.708Z,73.98
2023-02-27T05:21:06.216Z,74.84
2023-02-27T05:23:55.586Z,74.13
2023-02-27T05:26:44.310Z,73.75
2023-02-27T05:29:24.494Z,74.75
2023-02-27T05:32:03.700Z,74.87
2023-02-27T05:34:54.024Z,74.98
2023-02-27T05:37:52.087Z,75.61
2023-02-27T05:40:28.385Z,75.61
2023-02-27T05:43:06.734Z,76.15
2023-02-27T05:45:38.009Z,75.00
2023-02-27T05:48:12.190Z,74.78
2023-02-27T05:50:41.680Z,75.32
2023-02-27T05:53:15.438Z,73.82
2023-02-27T05:55:44.218Z,74.42
2023-02-27T05:58:35.733Z,75.40
2023-02-27T06:01:06.499Z,74.25
2023-02-27T06:03:36.278Z,74.54
2023-02-27T06:06:06.954Z,74.33
2023-02-27T06:08:35.284Z,76.00
2023-02-27T06:11:03.025Z,75.43
2023-02-27T06:13:30.471Z,75.05
2023-02-27T06:15:58.626Z,73.38
2023-02-27T06:18:26.048Z,74.36
2023-02-27T06:20:54.055Z,74.68
2023-02-27T06:23:21.531Z,75.37
2023-02-27T06:25:49.135Z,74.72
2023-02-27T06:28:16.582Z,74.42
2023-02-27T06:30:46.301Z,74.31
2023-02-27T06:33:14.050Z,74.94
2023-02-27T06:35:41.524Z,76.08
2023-02-27T06:38:08.998Z,75.78
2023-02-27T06:40:38.543Z,74.16
2023-02-27T06:43:06.023Z,74.49
2023-02-27T06:45:33.471Z,75.49
2023-02-27T06:48:00.995Z,75.15
2023-02-27T06:50:28.719Z,73.91
2023-02-27T06:52:56.209Z,73.67
2023-02-27T06:55:25.752Z,73.88
2023-02-27T06:57:54.340Z,73.08
2023-02-27T07:00:22.186Z,72.49
2023-02-27T07:02:49.552Z,73.15
2023-02-27T07:05:18.180Z,74.80
2023-02-27T07:07:45.693Z,74.92
2023-02-27T07:10:15.939Z,73.77
2023-02-27T07:12:43.322Z,72.62
2023-02-27T07:15:13.771Z,73.88
2023-02-27T07:17:41.728Z,74.35
2023-02-27T07:20:10.915Z,74.84
2023-02-27T07:22:39.927Z,75.08
2023-02-27T07:25:09.045Z,76.03
2023-02-27T07:27:36.436Z,74.84
2023-02-27T07:30:04.326Z,77.42
2023-02-27T07:32:31.691Z,74.77
2023-02-27T07:34:59.137Z,75.89
2023-02-27T07:37:28.175Z,76.75
2023-02-27T07:39:56.301Z,74.47
2023-02-27T07:42:23.847Z,76.85
2023-02-27T07:44:51.216Z,78.83
2023-02-27T07:47:18.639Z,76.29
2023-02-27T07:49:46.077Z,78.54
2023-02-27T07:52:13.544Z,79.75
2023-02-27T07:54:40.923Z,78.07
2023-02-27T07:57:08.353Z,76.35
2023-02-27T07:59:35.765Z,74.96
2023-02-27T08:02:03.372Z,76.37
2023-02-27T08:04:30.970Z,76.91
2023-02-27T08:06:58.492Z,78.39
2023-02-27T08:09:25.933Z,76.72
2023-02-27T08:11:53.394Z,77.07
2023-02-27T08:14:20.879Z,77.16
2023-02-27T08:16:54.296Z,76.08
2023-02-27T08:19:21.765Z,78.43
2023-02-27T08:21:49.259Z,77.19
2023-02-27T08:24:16.932Z,78.59
2023-02-27T08:26:44.702Z,77.66
2023-02-27T08:29:13.362Z,78.56
2023-02-27T08:31:43.189Z,76.81
2023-02-27T08:34:12.687Z,77.50
2023-02-27T08:36:40.619Z,78.15
2023-02-27T08:39:08.844Z,77.66
2023-02-27T08:41:36.604Z,75.81
2023-02-27T08:44:04.357Z,76.57
2023-02-27T08:46:32.112Z,74.83
2023-02-27T08:48:59.911Z,76.81
2023-02-27T08:51:28.234Z,78.38
2023-02-27T08:53:59.210Z,78.42
2023-02-27T08:56:28.030Z,78.44
2023-02-27T08:58:56.187Z,79.58
2023-02-27T09:01:24.093Z,77.21
2023-02-27T09:03:52.128Z,79.65
2023-02-27T09:06:19.687Z,78.92
2023-02-27T09:08:47.174Z,78.83
2023-02-27T09:11:14.578Z,78.77
2023-02-27T09:13:42.165Z,78.40
2023-02-27T09:16:10.487Z,77.79
2023-02-27T09:18:38.206Z,78.91
2023-02-27T09:21:06.949Z,77.28
2023-02-27T09:23:39.730Z,76.40
2023-02-27T09:26:40.718Z,75.50
2023-02-27T09:29:48.023Z,77.04
2023-02-27T09:35:40.772Z,74.29
2023-02-27T09:42:08.434Z,74.05
2023-02-27T09:45:00.865Z,75.64
2023-02-27T09:48:11.119Z,74.63
2023-02-27T09:51:03.525Z,74.77
2023-02-27T09:57:26.845Z,73.46
2023-02-27T10:00:50.896Z,73.73
2023-02-27T10:04:22.892Z,72.95
2023-02-27T10:07:41.189Z,73.47
2023-02-27T10:17:56.030Z,74.23
2023-02-27T10:21:17.839Z,75.22
2023-02-27T10:24:29.019Z,70.48
2023-02-27T10:34:03.717Z,71.23
2023-02-27T10:36:48.340Z,71.27
2023-02-27T10:43:42.719Z,67.98
2023-02-27T10:47:24.924Z,66.00
2023-02-27T10:50:04.569Z,67.69
2023-02-27T10:52:52.386Z,67.14
2023-02-27T10:55:28.334Z,68.58
2023-02-27T10:57:58.249Z,69.24
2023-02-27T11:00:45.481Z,67.98
2023-02-27T11:03:26.338Z,70.24
2023-02-27T11:05:57.649Z,71.45
2023-02-27T11:08:30.498Z,69.56
2023-02-27T11:11:07.029Z,69.34
2023-02-27T11:13:37.306Z,67.53
2023-02-27T11:16:09.492Z,71.32
2023-02-27T11:18:39.795Z,74.10
2023-02-27T11:21:10.539Z,69.09
2023-02-27T11:23:38.137Z,70.62
2023-02-27T11:26:17.574Z,70.77
2023-02-27T11:28:45.140Z,71.22
2023-02-27T11:31:21.007Z,70.30
2023-02-27T11:33:57.961Z,70.16
2023-02-27T11:36:44.842Z,70.39
2023-02-27T11:39:29.852Z,69.12
2023-02-27T11:42:05.960Z,65.71
2023-02-27T11:44:50.908Z,68.79
2023-02-27T11:47:27.771Z,72.56
2023-02-27T11:50:08.968Z,69.72
2023-02-27T11:52:52.016Z,70.56
2023-02-27T11:55:24.554Z,70.36
2023-02-27T12:02:45.238Z,67.19
2023-02-27T12:20:44.846Z,68.51
2023-02-27T12:28:32.813Z,70.30
2023-02-27T12:42:57.760Z,66.22
2023-02-27T13:10:09.521Z,66.65
2023-02-27T13:13:46.552Z,66.07
2023-02-27T13:17:02.914Z,63.14
2023-02-27T13:20:08.928Z,63.55
2023-02-27T13:23:33.709Z,63.06
2023-02-27T13:27:24.108Z,61.57
2023-02-27T13:30:12.633Z,63.56
2023-02-27T14:12:30.890Z,59.69
2023-02-27T14:15:39.450Z,59.83
2023-02-27T14:18:49.649Z,55.33
2023-02-27T14:21:50.914Z,58.75
2023-02-27T14:25:01.249Z,58.73
2023-02-27T14:27:38.557Z,57.06
2023-02-27T14:30:09.218Z,57.45
2023-02-27T14:32:37.873Z,58.40
2023-02-27T14:35:06.135Z,57.64
2023-02-27T14:37:36.044Z,58.02
2023-02-27T14:40:06.159Z,56.47
2023-02-27T14:43:04.289Z,57.38
2023-02-27T14:45:31.775Z,57.54
2023-02-27T14:47:59.154Z,57.30
2023-02-27T14:50:33.994Z,56.29
2023-02-27T14:53:01.605Z,56.74
2023-02-27T14:55:34.040Z,58.68
2023-02-27T14:58:14.832Z,56.12
2023-02-27T15:00:50.551Z,58.12
2023-02-27T15:03:22.642Z,58.33
2023-02-27T15:05:52.337Z,55.93
2023-02-27T15:08:30.077Z,57.51
2023-02-27T15:10:59.661Z,57.72
2023-02-27T15:13:39.045Z,59.15
2023-02-27T15:16:39.164Z,60.86
2023-02-27T15:19:22.784Z,60.03
2023-02-27T15:21:52.453Z,57.65
2023-02-27T15:24:31.308Z,57.04
2023-02-27T15:27:07.544Z,57.50
2023-02-27T15:29:38.993Z,59.91
2023-02-27T15:32:07.277Z,59.60
2023-02-27T15:34:35.615Z,60.49
2023-02-27T15:37:05.916Z,59.69
2023-02-27T15:39:34.414Z,57.72
2023-02-27T15:42:04.059Z,56.88
2023-02-27T15:44:38.953Z,58.29
2023-02-27T15:47:07.537Z,57.09
2023-02-27T15:49:36.067Z,57.25
2023-02-27T15:52:18.264Z,56.57
2023-02-27T15:55:04.296Z,59.39
2023-02-27T15:57:32.913Z,57.86
2023-02-27T16:00:00.953Z,59.33
2023-02-27T16:02:31.801Z,61.40
2023-02-27T16:04:59.258Z,62.67
2023-02-27T16:07:28.509Z,61.50
2023-02-27T16:10:00.647Z,60.86
2023-02-27T16:12:31.127Z,62.46
2023-02-27T16:15:17.475Z,62.93
2023-02-27T16:18:23.415Z,62.65
2023-02-27T16:20:54.934Z,61.15
2023-02-27T16:23:27.719Z,62.19
2023-02-27T16:26:30.840Z,62.91
2023-02-27T16:29:03.780Z,64.36
2023-02-27T16:31:37.217Z,63.56
2023-02-27T16:34:13.187Z,63.32
2023-02-27T16:36:42.305Z,65.47
2023-02-27T16:39:13.162Z,66.24
2023-02-27T16:41:40.321Z,66.05
2023-02-27T16:44:07.394Z,67.24
2023-02-27T16:46:34.733Z,67.31
2023-02-27T16:49:14.132Z,68.70
2023-02-27T16:51:46.667Z,69.77
2023-02-27T16:54:15.382Z,69.49
2023-02-27T16:56:44.363Z,69.15
2023-02-27T16:59:36.111Z,69.04
2023-02-27T17:02:06.294Z,68.75
2023-02-27T17:04:33.721Z,69.29
2023-02-27T17:07:01.734Z,70.99
2023-02-27T17:09:29.438Z,73.04
2023-02-27T17:11:58.220Z,75.21
2023-02-27T17:14:25.384Z,75.79
2023-02-27T17:16:52.596Z,75.50
2023-02-27T17:19:21.443Z,74.70
2023-02-27T17:21:49.161Z,74.49
2023-02-27T17:24:16.580Z,74.87
2023-02-27T17:26:43.827Z,75.61
2023-02-27T17:29:12.058Z,76.46
2023-02-27T17:31:41.633Z,77.54
2023-02-27T17:34:09.015Z,78.42
2023-02-27T17:36:36.595Z,81.06
2023-02-27T17:39:04.989Z,83.51
2023-02-27T17:41:32.344Z,84.09
2023-02-27T17:44:01.567Z,85.00
2023-02-27T17:46:30.759Z,84.06
2023-02-27T17:49:00.929Z,83.91
2023-02-27T17:51:30.339Z,84.27
2023-02-27T17:54:00.331Z,82.60
2023-02-27T17:56:28.633Z,82.61
2023-02-27T17:58:56.038Z,82.98
2023-02-27T18:01:25.860Z,83.15
2023-02-27T18:03:54.738Z,83.87
2023-02-27T18:06:23.456Z,84.63
2023-02-27T18:08:50.872Z,84.85
2023-02-27T18:11:19.881Z,85.33
2023-02-27T18:13:47.549Z,86.38
2023-02-27T18:16:15.017Z,84.21
2023-02-27T18:18:43.343Z,82.50
2023-02-27T18:21:20.417Z,82.35
2023-02-27T18:23:48.906Z,82.35
2023-02-27T18:26:29.066Z,82.37
2023-02-27T18:29:00.207Z,81.38
2023-02-27T18:31:33.392Z,82.12
2023-02-27T18:34:01.270Z,82.51
2023-02-27T18:36:30.105Z,82.72
2023-02-27T18:38:57.545Z,82.24
2023-02-27T18:41:24.795Z,81.63
2023-02-27T18:44:41.277Z,80.87
2023-02-27T18:47:09.532Z,81.20
2023-02-27T18:49:36.577Z,81.35
2023-02-27T18:52:03.827Z,82.93
2023-02-27T18:54:30.920Z,83.53
2023-02-27T18:56:58.038Z,84.76
2023-02-27T18:59:25.091Z,85.43
2023-02-27T19:01:52.148Z,84.92
2023-02-27T19:04:19.321Z,84.57
2023-02-27T19:06:46.585Z,84.63
2023-02-27T19:09:16.159Z,85.79
2023-02-27T19:11:45.740Z,86.05
2023-02-27T19:14:14.340Z,86.77
2023-02-27T19:16:42.101Z,86.96
2023-02-27T19:19:09.905Z,86.91
2023-02-27T19:21:37.095Z,86.87
2023-02-27T19:24:04.581Z,86.47
2023-02-27T19:26:34.171Z,86.26
2023-02-27T19:29:01.482Z,86.55
2023-02-27T19:31:28.669Z,86.76
2023-02-27T19:33:55.946Z,86.19
2023-02-27T19:36:24.698Z,85.84
2023-02-27T19:38:52.547Z,85.53
2023-02-27T19:41:20.874Z,84.71
2023-02-27T19:43:49.214Z,85.05
2023-02-27T19:46:29.040Z,84.93
2023-02-27T19:48:58.676Z,85.62
2023-02-27T19:51:26.625Z,85.55
2023-02-27T19:53:54.422Z,86.38
2023-02-27T19:56:24.850Z,87.45
2023-02-27T19:58:52.721Z,88.02
2023-02-27T20:01:25.186Z,87.66
2023-02-27T20:03:52.969Z,86.89
2023-02-27T20:06:23.724Z,86.89
2023-02-27T20:08:51.893Z,86.94
2023-02-27T20:11:20.917Z,88.14
2023-02-27T20:13:49.685Z,88.34
2023-02-27T20:16:20.647Z,88.48
2023-02-27T20:18:48.985Z,88.39
2023-02-27T20:21:19.173Z,88.35
2023-02-27T20:23:47.307Z,87.79
2023-02-27T20:26:41.033Z,87.18
2023-02-27T20:29:13.643Z,87.45
2023-02-27T20:31:42.980Z,87.07
2023-02-27T20:34:15.228Z,86.86
2023-02-27T20:36:43.937Z,87.09
2023-02-27T20:39:12.312Z,87.45
2023-02-27T20:41:40.273Z,87.47
2023-02-27T20:44:08.735Z,87.59
2023-02-27T20:46:36.492Z,88.74
2023-02-27T20:49:04.654Z,88.80
2023-02-27T20:51:37.723Z,89.02
2023-02-27T20:54:11.704Z,90.07
2023-02-27T20:56:41.026Z,90.00
2023-02-27T20:59:12.818Z,90.27
2023-02-27T21:01:40.967Z,89.46
2023-02-27T21:04:09.078Z,90.18
2023-02-27T21:06:36.275Z,89.79
2023-02-27T21:09:06.061Z,89.89
2023-02-27T21:11:34.290Z,89.46
2023-02-27T21:14:09.753Z,89.46
2023-02-27T21:16:38.728Z,89.23
2023-02-27T21:19:07.347Z,89.18
2023-02-27T21:21:35.233Z,89.39
2023-02-27T21:24:02.463Z,89.15
2023-02-27T21:26:38.816Z,89.19
2023-02-27T21:29:18.453Z,88.84
2023-02-27T21:31:48.933Z,88.43
2023-02-27T21:34:25.305Z,88.74
2023-02-27T21:36:53.153Z,87.72
2023-02-27T21:39:23.457Z,87.47
2023-02-27T21:41:50.806Z,87.30
2023-02-27T21:44:20.350Z,86.62
2023-02-27T21:46:48.085Z,87.85
2023-02-27T21:49:26.103Z,87.02
2023-02-27T21:51:53.504Z,86.83
2023-02-27T21:54:21.629Z,87.00
2023-02-27T21:56:48.969Z,86.82
2023-02-27T21:59:17.662Z,86.31
2023-02-27T22:01:47.398Z,86.01
2023-02-27T22:04:16.548Z,86.75
2023-02-27T22:06:43.924Z,86.40
2023-02-27T22:09:11.059Z,86.37
2023-02-27T22:11:40.738Z,85.92
2023-02-27T22:14:09.194Z,86.83
2023-02-27T22:16:36.811Z,86.08
2023-02-27T22:19:19.486Z,87.08
2023-02-27T22:21:46.817Z,87.80
2023-02-27T22:24:14.586Z,87.64
2023-02-27T22:26:42.547Z,87.37
2023-02-27T22:29:09.614Z,87.81
2023-02-27T22:31:38.114Z,87.71
2023-02-27T22:34:08.368Z,87.50
2023-02-27T22:36:36.165Z,88.24
2023-02-27T22:39:05.068Z,88.30
2023-02-27T22:41:35.667Z,88.65
2023-02-27T22:44:03.684Z,88.41
2023-02-27T22:46:33.562Z,89.30
2023-02-27T22:49:03.220Z,89.51
2023-02-27T22:51:31.179Z,89.69
2023-02-27T22:54:01.662Z,89.86
2023-02-27T22:56:29.692Z,90.05
2023-02-27T22:58:57.004Z,90.40
2023-02-27T23:01:28.652Z,90.60
2023-02-27T23:03:59.652Z,90.61
2023-02-27T23:06:33.117Z,91.08
2023-02-27T23:09:01.472Z,91.86
2023-02-27T23:11:28.925Z,91.81
2023-02-27T23:13:56.636Z,91.44
2023-02-27T23:16:24.912Z,91.32
2023-02-27T23:18:57.225Z,91.60
2023-02-27T23:21:36.100Z,91.79
2023-02-27T23:24:11.736Z,91.58
2023-02-27T23:26:41.466Z,91.61
2023-02-27T23:29:09.885Z,92.08
2023-02-27T23:31:38.007Z,91.97
2023-02-27T23:34:08.176Z,92.11
2023-02-27T23:36:36.394Z,91.75
2023-02-27T23:39:05.323Z,92.40
2023-02-27T23:41:33.091Z,92.77
2023-02-27T23:44:18.552Z,92.36
2023-02-27T23:46:45.641Z,93.09
2023-02-27T23:49:12.937Z,93.87
2023-02-27T23:51:40.147Z,93.35
2023-02-27T23:54:07.255Z,93.06
2023-02-27T23:56:34.360Z,93.11
2023-02-27T23:59:04.678Z,94.20
